• Join FlightAware (Why Join?)
  • Login
  • US Flag 
Gobble Gobble! 
02:15AM EST


 

Airport Tracker/Info


-or-


 

Live Flight TrackerFlight Track Log ✈ CCA4393 ✈ 20-Jul-2013 ✈ ZUJZ / JZH - ZGGG / CAN

Flight Track Log - Related Links

Times and Time Zones

All times are in EDT time to prevent confusion due to time zone crossing. See the CCA4393 flight status page for this flight to view local times or setup timezone preferences in your user account.

Time Position Orientation Groundspeed Altitude Reporting Facility
EDT Latitude Longitude Course Direction KTS MPH feet Rate Location/Type
08:07PM 32.6195 103.9573 136° Southeast  Level Estimated
08:08PM 32.5401 104.0484 136° Southeast  Level Estimated
08:09PM 32.4608 104.1393 136° Southeast  Level Estimated
08:10PM 32.3813 104.2301 136° Southeast  Level Estimated
08:11PM 32.3018 104.3207 136° Southeast  Level Estimated
08:12PM 32.2223 104.4112 136° Southeast  Level Estimated
08:13PM 32.1426 104.5015 136° Southeast  Level Estimated
08:14PM 32.0629 104.5916 136° Southeast  Level Estimated
08:14PM 32.6040 104.1420 136° Southeast 474 545 28,000  Level FlightAware
08:15PM 31.9831 104.6816 136° Southeast  Level Estimated
08:15PM 32.5260 104.1520 174° South 477 549 28,900  Level FlightAware
08:16PM 32.4380 104.1640 173° South 473 544 30,200 1,560 Climbing FlightAware
08:16PM 32.3460 104.1770 173° South 479 551 31,100 660 Climbing FlightAware
08:17PM 32.2720 104.1870 173° South 477 549 31,100  Level FlightAware
08:18PM 32.2280 104.1940 172° South 477 549 31,100  Level FlightAware
08:18PM 32.0840 104.2160 173° South 479 551 31,100  Level FlightAware
08:19PM 31.9960 104.2280 173° South 477 549 31,100  Level FlightAware
08:20PM 31.9020 104.2420 173° South 477 549 31,100  Level FlightAware
08:21PM 31.8070 104.2560 173° South 478 550 31,100 60 Level FlightAware
08:21PM 31.7230 104.2680 173° South 480 552 31,200 960 Climbing FlightAware
08:22PM 31.6240 104.2820 173° South 480 552 32,500 1,320 Climbing FlightAware
08:23PM 31.5330 104.2960 173° South 477 549 33,100 420 Climbing FlightAware
08:23PM 31.4350 104.3100 173° South 477 549 33,100  Level FlightAware
08:24PM 31.3480 104.3220 173° South 476 548 33,100  Level FlightAware
08:25PM 31.2610 104.3350 173° South 476 548 33,100  Level FlightAware
08:25PM 31.1640 104.3490 173° South 476 548 33,100  Level FlightAware
08:26PM 31.0670 104.3630 173° South 476 548 33,100  Level FlightAware
08:27PM 30.9750 104.3760 173° South 477 549 33,100  Level FlightAware
08:28PM 30.8880 104.3900 172° South 478 550 33,100  Level FlightAware
08:28PM 30.8110 104.4130 166° South 480 552 33,100  Level FlightAware
08:29PM 30.7210 104.4480 162° South 480 552 33,100  Level FlightAware
08:29PM 30.6540 104.4740 162° South 480 552 33,100  Level FlightAware
08:30PM 30.5470 104.5150 162° South 480 552 33,100  Level FlightAware
08:31PM 30.4720 104.5430 162° South 479 551 33,100  Level FlightAware
08:32PM 30.3710 104.5820 162° South 477 549 33,100  Level FlightAware
08:32PM 30.2800 104.6160 162° South 477 549 33,100  Level FlightAware
08:33PM 30.1950 104.6480 162° South 476 548 33,100  Level FlightAware
08:34PM 30.1110 104.6800 162° South 474 545 33,100  Level FlightAware
08:34PM 30.0200 104.7100 164° South 474 545 33,100  Level FlightAware
08:35PM 29.9390 104.7070 182° South 475 547 33,100  Level FlightAware
08:36PM 29.8240 104.7280 171° South 477 549 33,100  Level FlightAware
08:37PM 29.7360 104.7500 168° South 477 549 33,100  Level FlightAware
08:37PM 29.6680 104.7660 168° South 477 549 33,100  Level FlightAware
08:38PM 29.6020 104.7820 168° South 477 549 33,100  Level FlightAware
08:39PM 29.5360 104.7990 167° South 477 549 33,100  Level FlightAware
08:39PM 29.4470 104.8200 168° South 477 549 33,100  Level FlightAware
08:40PM 29.3850 104.8350 168° South 477 549 33,100  Level FlightAware
08:41PM 29.2880 104.8590 168° South 477 549 33,100  Level FlightAware
08:41PM 29.1770 104.8850 168° South 461 531 33,100  Level FlightAware
08:42PM 29.0880 104.8540 197° South 462 532 33,100  Level FlightAware
08:42PM 29.0050 104.8250 197° South 464 534 33,100  Level FlightAware
08:43PM 28.9400 104.8020 197° South 466 536 33,100  Level FlightAware
08:44PM 28.8650 104.7870 190° South 469 540 33,100 60 Level FlightAware
08:45PM 28.7470 104.8330 161° South 472 543 33,200  Climbing FlightAware
08:45PM 28.6680 104.9150 138° Southeast 470 541 33,100 -120 Descending FlightAware
08:46PM 28.6070 104.9770 138° Southeast 454 522 33,100  Level FlightAware
08:47PM 28.5470 105.0390 138° Southeast 450 518 33,100  Level FlightAware
08:47PM 28.4800 105.1090 137° Southeast 451 519 33,100  Level FlightAware
08:48PM 28.4290 105.1630 137° Southeast 451 519 33,100  Level FlightAware
08:49PM 28.3670 105.2290 137° Southeast 451 519 33,100  Level FlightAware
08:50PM 28.3190 105.2800 137° Southeast 451 519 33,100  Level FlightAware
08:51PM 28.2410 105.3620 137° Southeast 451 519 33,100  Level FlightAware
08:51PM 28.1950 105.4100 137° Southeast 451 519 33,100  Level FlightAware
08:52PM 28.1030 105.5080 137° Southeast 451 519 33,100  Level FlightAware
08:53PM 28.0570 105.5570 137° Southeast 451 519 33,100  Level FlightAware
08:54PM 27.9940 105.6230 137° Southeast 451 519 33,100  Level FlightAware
08:54PM 27.9480 105.6720 137° Southeast 451 519 33,100  Level FlightAware
08:55PM 27.8850 105.7380 137° Southeast 451 519 33,100  Level FlightAware
08:56PM 27.8390 105.7870 137° Southeast 451 519 33,100  Level FlightAware
08:57PM 27.7750 105.8540 137° Southeast 451 519 33,100  Level FlightAware
08:59PM 27.6596 106.0666 121° Southeast  Level Estimated
09:00PM 27.6017 106.1727 122° Southeast  Level Estimated
09:01PM 27.5438 106.2787 122° Southeast  Level Estimated
09:02PM 27.4858 106.3846 122° Southeast  Level Estimated
09:03PM 27.4277 106.4904 122° Southeast  Level Estimated
09:04PM 27.3696 106.5960 122° Southeast  Level Estimated
09:05PM 27.3113 106.7016 122° Southeast  Level Estimated
09:06PM 27.2530 106.8070 122° Southeast  Level Estimated
09:07PM 27.1946 106.9124 122° Southeast  Level Estimated
09:08PM 27.1361 107.0176 122° Southeast  Level Estimated
09:09PM 27.0776 107.1227 122° Southeast  Level Estimated
09:10PM 27.0189 107.2277 122° Southeast  Level Estimated
09:11PM 26.9602 107.3326 122° Southeast  Level Estimated
09:12PM 26.9014 107.4374 122° Southeast  Level Estimated
09:13PM 26.8426 107.5421 122° Southeast  Level Estimated
09:14PM 26.7836 107.6467 122° Southeast  Level Estimated
09:15PM 26.7246 107.7511 122° Southeast  Level Estimated
09:16PM 26.6655 107.8555 122° Southeast  Level Estimated
09:17PM 26.6063 107.9597 122° Southeast  Level Estimated
09:18PM 26.5471 108.0639 122° Southeast  Level Estimated
09:19PM 26.4878 108.1679 122° Southeast  Level Estimated
09:20PM 26.4284 108.2718 123° Southeast  Level Estimated
09:21PM 26.3689 108.3756 123° Southeast  Level Estimated
09:22PM 26.3093 108.4793 123° Southeast  Level Estimated
09:23PM 26.2497 108.5829 123° Southeast  Level Estimated
09:24PM 26.1900 108.6864 123° Southeast  Level Estimated
09:25PM 26.1303 108.7898 123° Southeast  Level Estimated
09:26PM 26.0704 108.8931 123° Southeast  Level Estimated
09:27PM 26.0105 108.9963 123° Southeast  Level Estimated
09:28PM 25.9505 109.0993 123° Southeast  Level Estimated
09:29PM 25.8904 109.2023 123° Southeast  Level Estimated
09:30PM 25.8303 109.3052 123° Southeast  Level Estimated
09:31PM 25.7701 109.4079 123° Southeast  Level Estimated
09:32PM 25.7098 109.5106 123° Southeast  Level Estimated
09:33PM 25.6495 109.6131 123° Southeast  Level Estimated
09:34PM 25.5891 109.7156 123° Southeast  Level Estimated
09:35PM 25.5285 109.8179 123° Southeast  Level Estimated
09:36PM 25.4680 109.9202 123° Southeast  Level Estimated
09:37PM 25.4073 110.0223 123° Southeast  Level Estimated
09:38PM 25.3466 110.1243 123° Southeast  Level Estimated
09:38PM 24.8960 110.4630 123° Southeast 456 525 33,100  Level FlightAware
09:39PM 25.2859 110.2263 123° Southeast  Level Estimated
09:39PM 24.7980 110.5670 136° Southeast 458 527 33,100  Level FlightAware
09:40PM 24.7070 110.6620 137° Southeast 454 522 33,200 60 Climbing FlightAware
09:40PM 24.6680 110.7030 136° Southeast 454 522 33,200 -120 Level FlightAware
09:41PM 24.5890 110.7860 136° Southeast 451 519 33,100 -60 Descending FlightAware
09:42PM 24.5010 110.8820 135° Southeast 451 519 33,100  Level FlightAware
09:43PM 24.4410 110.9460 136° Southeast 449 517 33,100  Level FlightAware
09:43PM 24.3710 111.0210 136° Southeast 450 518 33,100  Level FlightAware
09:44PM 24.2880 111.1110 135° Southeast 449 517 33,100  Level FlightAware
09:45PM 24.2080 111.1960 136° Southeast 449 517 33,100  Level FlightAware
09:46PM 24.1520 111.2570 135° Southeast 449 517 33,100 -840 Level FlightAware
09:47PM 24.0820 111.3320 136° Southeast 448 516 32,000 -1,800 Descending FlightAware
09:47PM 24.0270 111.3910 136° Southeast 453 521 30,800 -2,100 Descending FlightAware
09:48PM 23.9640 111.4590 135° Southeast 458 527 29,300 -2,100 Descending FlightAware
09:49PM 23.9010 111.5270 135° Southeast 447 514 27,900 -1,320 Descending FlightAware
09:49PM 23.8530 111.5790 135° Southeast 444 511 27,600 -1,080 Descending FlightAware
09:50PM 23.7930 111.6440 135° Southeast 438 504 26,600 -660 Descending FlightAware
09:51PM 23.7330 111.7080 136° Southeast 393 452 26,700 60 Climbing FlightAware
09:51PM 23.6920 111.7520 135° Southeast 393 452 26,700 -480 Level FlightAware
09:52PM 23.6350 111.8120 136° Southeast 382 440 26,100 -900 Descending FlightAware
09:53PM 23.5550 111.8970 136° Southeast 374 430 25,200 -960 Descending FlightAware
09:54PM 23.5060 111.9490 136° Southeast 371 427 24,500 -1,140 Descending FlightAware
09:54PM 23.4640 111.9940 135° Southeast 368 423 23,800 -660 Descending FlightAware
09:55PM 23.4190 112.0430 135° Southeast 368 423 23,700 -120 Descending FlightAware
09:56PM 23.3820 112.0830 135° Southeast 368 423 23,700 -2,400 Level FlightAware
09:56PM 23.3270 112.1640 126° Southeast 348 400 20,500 -2,940 Descending FlightAware
09:57PM 23.2840 112.2180 131° Southeast 342 394 19,300 -1,800 Descending FlightAware
09:58PM 23.2380 112.2770 130° Southeast 336 387 18,000 -1,920 Descending FlightAware
09:58PM 23.1910 112.3360 131° Southeast 333 383 16,600 -1,860 Descending FlightAware
09:59PM 23.1510 112.3860 131° Southeast 331 381 15,400 -1,800 Descending FlightAware
09:59PM 23.1310 112.4110 131° Southeast 329 379 14,800 -660 Descending FlightAware
10:00PM 23.0840 112.4710 130° Southeast 329 379 14,600 -1,200 Descending FlightAware
10:01PM 23.0690 112.5570 101° East 304 350 12,700 -1,800 Descending FlightAware
10:02PM 23.0700 112.6120 89° East 304 350 12,100 -660 Descending FlightAware
10:03PM 23.0700 112.6820 90° East 312 359 11,800 -240 Descending FlightAware
10:03PM 23.0690 112.7490 91° East 311 358 11,800  Level FlightAware
10:04PM 23.0870 112.8080 72° East 324 373 11,800  Level FlightAware
10:05PM 23.1180 112.8570 55° Northeast 321 369 11,800  Level FlightAware
10:05PM 23.1590 112.9200 55° Northeast 321 369 11,800  Level FlightAware
10:06PM 23.1920 112.9690 54° Northeast 322 371 11,800  Level FlightAware
10:06PM 23.2160 113.0050 54° Northeast 324 373 11,800 -840 Level FlightAware
10:07PM 23.2520 113.0580 54° Northeast 327 376 10,900 -840 Descending FlightAware
10:08PM 23.2900 113.1150 54° Northeast 326 375 10,700 -840 Descending FlightAware
10:09PM 23.3300 113.1670 50° Northeast 322 371 9,800 -1,380 Descending FlightAware
10:09PM 23.3500 113.1760 22° Northeast 321 369 9,400 -960 Descending FlightAware
10:09PM 23.3920 113.1850 11° North 302 348 9,100 -720 Descending FlightAware
10:10PM 23.4260 113.1910 North 283 326 8,800 -780 Descending FlightAware
10:10PM 23.4450 113.1940 North 275 316 8,600 -600 Descending FlightAware
10:10PM 23.4810 113.2020 12° North 255 293 8,400 -480 Descending FlightAware
10:11PM 23.5070 113.2080 12° North 239 275 8,200 -300 Descending FlightAware
10:11PM 23.5340 113.2130 10° North 229 264 8,100 -120 Descending FlightAware
10:12PM 23.5730 113.2220 12° North 226 260 8,100  Level FlightAware
10:12PM 23.5830 113.2240 10° North 226 260 8,100 -480 Level FlightAware
10:13PM 23.6170 113.2310 11° North 225 259 7,800 -840 Descending FlightAware
10:13PM 23.6410 113.2370 13° North 222 255 7,400 -960 Descending FlightAware
10:13PM 23.6560 113.2400 10° North 220 253 7,200 -1,020 Descending FlightAware
10:14PM 23.6840 113.2460 11° North 221 254 6,700 -1,020 Descending FlightAware
10:14PM 23.7090 113.2510 10° North 220 253 6,300 -660 Descending FlightAware
10:15PM 23.7400 113.2570 10° North 220 253 6,100 -240 Descending FlightAware
10:15PM 23.7690 113.2650 14° North 219 252 6,100  Level FlightAware
10:15PM 23.7780 113.2730 39° Northeast 203 234 6,100 -240 Level FlightAware
10:16PM 23.7820 113.2850 70° East 189 217 6,000 -780 Descending FlightAware
10:16PM 23.7800 113.3090 95° East 179 206 5,600 -780 Descending FlightAware
10:16PM 23.7760 113.3310 101° East 178 205 5,300 -720 Descending FlightAware
10:17PM 23.7690 113.3430 123° Southeast 166 191 5,100 -900 Descending FlightAware
10:17PM 23.7580 113.3470 162° South 163 188 4,900 -960 Descending FlightAware
10:17PM 23.7490 113.3490 169° South 164 189 4,700 -840 Descending FlightAware
10:18PM 23.7300 113.3540 166° South 164 189 4,400 -540 Descending FlightAware
10:18PM 23.6970 113.3620 167° South 165 190 4,100 -660 Descending FlightAware
10:20PM 23.6400 113.3550 186° South 171 197 3,200 -600 Descending FlightAware
10:20PM 23.6190 113.3490 195° South 173 199 3,200  Level FlightAware
10:20PM 23.5990 113.3430 195° South 173 199 3,200  Level FlightAware
10:21PM 23.5800 113.3380 194° South 171 197 3,200 -120 Level FlightAware
10:21PM 23.5570 113.3320 193° South 175 201 3,100 -660 Descending FlightAware
10:22PM 23.5380 113.3270 194° South 172 198 2,700 -720 Descending FlightAware
10:22PM 23.5070 113.3190 193° South 171 197 2,400 -420 Descending FlightAware
10:25PM 23.3924 113.2988 189° South  Level Estimated